Terminal Aerodrome Forecast
Issued by NWS

Home | Current Version | Previous Version | Text Only | Print | Product List | Glossary On
Versions: 1 2 3 4 5 6 7 8 9 10 11 12 13 14 15
000
FTUS45 KABQ 241743
TAFLVS
TAF
KLVS 241743Z 2418/2518 16008KT P6SM FEW060 SCT250
     FM242300 16011KT P6SM VCSH SCT060 BKN120
     FM250700 19007KT P6SM FEW060 BKN120
     FM251500 21010G18KT P6SM FEW060=

USA.gov is the U.S. government's official web portal to all federal, state and local government web resources and services.